Terminal Aerodrome Forecast
Issued by NWS

Home | Current Version | Previous Version | Text Only | Print | Product List | Glossary On
Versions: 1 2 3 4 5 6 7 8 9 10 11 12 13 14
000
FTUS43 KGLD 182300 RRA
TAFMCK
TAF
KMCK 182349Z 1900/1924 18018G28KT P6SM SCT300
     FM191000 18010KT P6SM BKN200
     FM191600 36010KT P6SM SCT040 BKN120
     FM192000 04012KT P6SM SCT040 OVC120 PROB30 1921/1924 -TSRA
      BKN040CB=

USA.gov is the U.S. government's official web portal to all federal, state and local government web resources and services.